Tire Hill, PA (15959)

6:09 AM EDT on August 04, 2015 (GMT -0400)
Soap Hollow Road | | Change Station
CLOSE
Current Station
Personal Weather Station
Location: Johnstown, PA
Elevation: 1598 ft
Nearby Weather Stations

Elev 1598 ft 40.26 °N, 78.94 °W | Updated 8 minutes ago

Partly Cloudy
Partly Cloudy
60.1 °F
Feels Like 60.1 °F
N
0.0
Wind Variable Wind from WSW

Today
High -- | Low -- °F
--% Chance of Precip.
Yesterday
High -- | Low -- °F
Precip. -- in
6:15 AM 8:26 PM
Waning Gibbous, 79% visible
Pressure 29.97 in
Visibility 6.0 miles
Clouds Mostly Cloudy 400 ft
Dew Point 59 °F
Humidity 97%
Rainfall 0.42 in
Snow Depth Not available.
UV 0 out of 12
Pollen 6.90 out of 12
Air Quality Not available.
Flu Activity Not available.
SPECI KJST 041004Z AUTO 21005KT 6SM BR BKN004 17/16 A2997 RMK AO2 T01670156

More Conditions Fewer Conditions

Pressure 29.97 in
Visibility 6.0 miles
Clouds Mostly Cloudy 400 ft
Dew Point 59 °F
Humidity 97%
Rainfall 0.42 in
Snow Depth Not available.
UV 0 out of 12
Pollen 6.90 out of 12
Air Quality Not available.
Flu Activity Not available.
SPECI KJST 041004Z AUTO 21005KT 6SM BR BKN004 17/16 A2997 RMK AO2 T01670156

More Conditions Fewer Conditions

10-Day Weather Forecast

×

Almanac

Astronomy

Aug. 04, 2015 Rise Set
Actual Time
Civil Twilight
Nautical Twilight
Astronomical Twilight
Moon
Length of Visible Light
Length of Day
Tomorrow will be .
, % of the Moon is Illuminated

Today's Extremes

State Highs State Lows

Community

WunderPhotos

Upload Photos

1,843,882 photos uploaded!

WunderBlogs® & News

Nearby

Air Quality

  Air Quality AQ Index Pollutant
Not available.

Snow Depth

Station Depth Elevation

Earthquake Activity

City Distance Mag. Time & Date
Minimum magnitude displayed is 2.5.

Coastal Water Temperatures

Place Temperature

Stations

Nearby Weather Stations

Station Location Temp. Windchill Dew Point Humidity Wind Precip. Elev Updated Type